createdAt,value
2022-11-28T15:29:21.104Z,41.32
2022-11-28T15:32:32.859Z,43.01
2022-11-28T15:35:41.267Z,42.78
2022-11-28T15:38:48.596Z,50.60
2022-11-28T15:41:55.691Z,62.57
2022-11-28T15:45:18.472Z,78.86
2022-11-28T15:48:39.787Z,106.06
2022-11-28T15:51:57.034Z,102.77
2022-11-28T15:55:03.214Z,105.57
2022-11-28T15:58:15.266Z,100.43
2022-11-28T16:01:26.901Z,95.16
2022-11-28T16:04:34.978Z,72.65
2022-11-28T16:15:29.819Z,43.46
2022-11-28T16:18:38.715Z,45.15
2022-11-28T16:21:55.647Z,45.32
2022-11-28T16:25:17.765Z,43.75
2022-11-28T16:28:35.722Z,41.33
2022-11-28T16:31:43.178Z,43.39
2022-11-28T16:35:00.455Z,50.67
2022-11-28T16:38:19.403Z,48.88
2022-11-28T16:41:30.826Z,56.53
2022-11-28T16:44:37.631Z,56.87
2022-11-28T16:47:44.772Z,52.63
2022-11-28T16:51:36.575Z,49.72
2022-11-28T16:54:43.986Z,47.57
2022-11-28T16:57:50.629Z,46.85
2022-11-28T17:01:05.325Z,46.18
2022-11-28T17:04:24.399Z,46.77
2022-11-28T17:07:34.171Z,49.56
2022-11-28T17:10:40.521Z,48.59
2022-11-28T17:13:47.585Z,50.30
2022-11-28T17:16:53.625Z,53.93
2022-11-28T17:20:00.485Z,48.22
2022-11-28T17:23:09.129Z,46.49
2022-11-28T17:26:15.831Z,46.88
2022-11-28T17:29:22.677Z,45.26
2022-11-28T17:32:29.436Z,45.49
2022-11-28T17:35:45.811Z,47.50
2022-11-28T17:38:55.125Z,50.37
2022-11-28T17:42:02.034Z,52.44
2022-11-28T17:45:18.300Z,53.32
2022-11-28T17:48:24.374Z,59.77
2022-11-28T17:51:31.175Z,55.24
2022-11-28T17:54:39.931Z,58.04
2022-11-28T17:57:48.532Z,58.95
2022-11-28T18:01:00.164Z,58.47
2022-11-28T18:04:08.585Z,59.65
2022-11-28T18:07:21.752Z,59.69
2022-11-28T18:10:32.717Z,67.14
2022-11-28T18:13:39.606Z,64.42
2022-11-28T18:16:46.660Z,65.72
2022-11-28T18:19:57.300Z,68.63
2022-11-28T18:23:04.730Z,71.86
2022-11-28T18:26:17.298Z,74.36
2022-11-28T18:29:24.150Z,75.06
2022-11-28T18:32:32.301Z,75.69
2022-11-28T18:35:39.827Z,78.45
2022-11-28T18:38:46.719Z,77.80
2022-11-28T18:41:56.652Z,80.52
2022-11-28T18:45:02.898Z,77.29
2022-11-28T18:48:10.079Z,77.12
2022-11-28T18:51:18.450Z,75.90
2022-11-28T18:54:25.966Z,79.81
2022-11-28T18:57:35.260Z,83.07
2022-11-28T19:00:42.385Z,86.90
2022-11-28T19:03:54.053Z,73.95
2022-11-28T19:07:01.830Z,67.39
2022-11-28T19:10:12.972Z,65.63
2022-11-28T19:13:23.103Z,66.34
2022-11-28T19:16:33.894Z,68.64
2022-11-28T19:19:41.637Z,68.18
2022-11-28T19:22:48.218Z,64.28
2022-11-28T19:25:55.112Z,64.69
2022-11-28T19:29:05.228Z,65.03
2022-11-28T19:32:12.867Z,63.17
2022-11-28T19:35:19.384Z,62.70
2022-11-28T19:38:26.224Z,61.87
2022-11-28T19:41:33.327Z,63.85
2022-11-28T19:44:43.669Z,65.25
2022-11-28T19:47:49.693Z,64.10
2022-11-28T19:50:57.890Z,63.67
2022-11-28T19:54:04.474Z,65.79
2022-11-28T19:57:13.294Z,63.64
2022-11-28T20:00:24.328Z,65.47
2022-11-28T20:03:31.568Z,71.19
2022-11-28T20:06:38.409Z,68.18
2022-11-28T20:09:45.353Z,65.04
2022-11-28T20:12:54.318Z,66.50
2022-11-28T20:16:09.075Z,75.02
2022-11-28T20:19:16.034Z,75.52
2022-11-28T20:22:25.059Z,73.08
2022-11-28T20:25:33.414Z,71.22
2022-11-28T20:28:44.182Z,72.26
2022-11-28T20:31:54.481Z,71.37
2022-11-28T20:35:02.372Z,74.39
2022-11-28T20:38:08.412Z,72.71
2022-11-28T20:41:18.565Z,76.18
2022-11-28T20:44:26.645Z,75.04
2022-11-28T20:47:37.416Z,77.08
2022-11-28T20:50:46.445Z,76.49
2022-11-28T20:53:53.238Z,76.41
2022-11-28T20:57:20.332Z,73.09
2022-11-28T21:00:26.891Z,71.33
2022-11-28T21:03:37.243Z,68.51
2022-11-28T21:06:44.914Z,68.05
2022-11-28T21:09:50.918Z,69.24
2022-11-28T21:12:57.672Z,69.01
2022-11-28T21:16:10.104Z,68.11
2022-11-28T21:19:19.742Z,68.69
2022-11-28T21:22:25.837Z,68.72
2022-11-28T21:25:32.849Z,69.51
2022-11-28T21:28:42.083Z,69.51
2022-11-28T21:31:50.255Z,73.34
2022-11-28T21:35:04.106Z,72.12
2022-11-28T21:38:12.102Z,72.26
2022-11-28T21:41:18.505Z,71.57
2022-11-28T21:44:25.311Z,67.93
2022-11-28T21:47:31.363Z,67.97
2022-11-28T21:50:47.659Z,67.90
2022-11-28T21:54:59.752Z,65.45
2022-11-28T21:58:07.199Z,68.03
2022-11-28T22:01:16.810Z,69.78
2022-11-28T22:04:23.596Z,70.24
2022-11-28T22:07:29.678Z,72.17
2022-11-28T22:10:40.681Z,73.02
2022-11-28T22:13:49.286Z,73.96
2022-11-28T22:16:56.485Z,75.48
2022-11-28T22:20:03.104Z,79.09
2022-11-28T22:23:10.075Z,84.42
2022-11-28T22:26:18.886Z,86.28
2022-11-28T22:29:26.208Z,86.06
2022-11-28T22:32:32.896Z,81.65
2022-11-28T22:35:39.983Z,81.75
2022-11-28T22:38:49.121Z,80.01
2022-11-28T22:41:59.190Z,78.48
2022-11-28T22:45:05.802Z,77.81
2022-11-28T22:48:12.938Z,78.08
2022-11-28T22:51:22.824Z,77.24
2022-11-28T22:54:29.869Z,79.85
2022-11-28T22:57:39.574Z,78.15
2022-11-28T23:00:46.756Z,80.05
2022-11-28T23:03:54.617Z,78.66
2022-11-28T23:07:02.808Z,81.11
2022-11-28T23:10:11.789Z,82.83
2022-11-28T23:13:21.294Z,86.00
2022-11-28T23:16:30.592Z,84.40
2022-11-28T23:19:37.687Z,84.44
2022-11-28T23:22:44.382Z,84.21
2022-11-28T23:25:51.534Z,84.19
2022-11-28T23:29:03.612Z,84.83
2022-11-28T23:32:10.606Z,83.96
2022-11-28T23:35:17.990Z,83.27
2022-11-28T23:38:26.518Z,84.10
2022-11-28T23:41:34.757Z,84.29
2022-11-28T23:44:44.568Z,83.12
2022-11-28T23:47:50.991Z,84.42
2022-11-28T23:50:58.135Z,84.98
2022-11-28T23:54:04.637Z,84.36
2022-11-28T23:57:11.598Z,85.29
